General Aviation Weather

Text Reports

Enter one or more of the following location identifiers separated by a space:

Zip Code, Four-Character ICAO or Three-Character IATA airport codes.

METAR - Aviation Routine Weather Report
KOLZ - Oelwein, Iowa
Updated at 12:55 AM GMT on April 20, 2015 (7:55 PM CDT):
METAR KOLZ 200055Z AUTO 33022G32KT 4SM -RA FEW009 BKN019 OVC065 11/10 A2948 RMK AO2 P0007
TAF - Terminal Area Forecast
KOLZ - Oelwein, Iowa
Updated at 12:55 AM GMT on April 20, 2015 (7:55 PM CDT):
No TAF is currently available for this location.
Decoded:
No decoded TAF is available.
PIREP - Pilot Weather Report
KOLZ - Oelwein, Iowa
Updated at 12:55 AM GMT on April 20, 2015 (7:55 PM CDT):
No PIREP is currently available for this location.
AIRMET - Airmens Meteorological Information
KOLZ - Oelwein, Iowa
Updated at 12:55 AM GMT on April 20, 2015 (7:55 PM CDT):
No AIRMET is currently available for this location.
SIGMET - Significant Meteorological Information
KOLZ - Oelwein, Iowa
Updated at 12:55 AM GMT on April 20, 2015 (7:55 PM CDT):
No SIGMET is currently available for this location.
NOTAM - Notice to Airmen
KOLZ - Oelwein, Iowa
Updated at 12:55 AM GMT on April 20, 2015 (7:55 PM CDT):
No NOTAM is currently available for this location.
Forecast Area
KOLZ - Oelwein, Iowa
Updated at 12:55 AM GMT on April 20, 2015 (7:55 PM CDT):
No NOTAM is currently available for this location.
Aviation Weather Maps